This is the latest recevied weather packets stored in our database for station/object IZ6UQU-13. If no packets are shown the sender has not sent any weather packets the latest 1 day(s).
| Time | Temp. | Humidity | Pressure | Rain* | Wind** | Luminosity | Snow |
|---|---|---|---|---|---|---|---|
| 1778069102 | 18.33° C | 68% | 954.9 hPa | 0 mm | - | - | - |
| 1778066702 | 17.78° C | 88% | 955.2 hPa | 0 mm | - | - | - |
| 1778066102 | 15.56° C | 96% | 955.3 hPa | 0 mm | - | - | - |
| 1778064603 | 13.89° C | 94% | 955.3 hPa | 0 mm | - | - | - |
| 1778064303 | 14.44° C | 97% | 955.4 hPa | 0 mm | - | - | - |
| 1778064003 | 13.33° C | 98% | 955.4 hPa | 0 mm | - | - | - |
| 1778063703 | 13.33° C | 97% | 955.4 hPa | 0 mm | - | - | - |
| 1778063103 | 12.78° C | 97% | 955.4 hPa | 0 mm | - | - | - |
| 1778062503 | 12.78° C | 97% | 955.5 hPa | 0 mm | - | - | - |
| 1778062203 | 12.78° C | 97% | 955.5 hPa | 0 mm | - | - | - |
| 1778061908 | 12.78° C | 98% | 955.5 hPa | 0 mm | - | - | - |
| 1778061303 | 12.78° C | 98% | 955.7 hPa | 0 mm | - | - | - |
| 1778060703 | 12.78° C | 99% | 955.7 hPa | 0 mm | - | - | - |
| 1778060403 | 12.78° C | 99% | 955.7 hPa | 0 mm | - | - | - |
| 1778060103 | 12.78° C | 99% | 955.7 hPa | 0 mm | - | - | - |
| 1778058903 | 12.78° C | 10% | - | 0 mm | - | - | - |
| 1778058003 | 11.67° C | 99% | 955.7 hPa | 0 mm | - | - | - |
| 1778056803 | 11.67° C | 99% | 955.7 hPa | 0 mm | - | - | - |
| 1778055603 | 11.67° C | 99% | 955.5 hPa | 0 mm | - | - | - |
| 1778045702 | 10.56° C | 99% | 955.6 hPa | 0 mm | - | - | - |
| 1778044502 | 10.56° C | 99% | 955.6 hPa | 0 mm | - | - | - |
| 1778043902 | 10.56° C | 99% | 955.4 hPa | 0 mm | - | - | - |
| 1778043302 | 10.56° C | 99% | 955.3 hPa | 0 mm | - | - | - |
| 1778043002 | 10.56° C | 99% | 955.3 hPa | 0 mm | - | - | - |
| 1778042702 | 10.56° C | 99% | 955.2 hPa | 0 mm | - | - | - |
* Rain latest hour (hover to see other rain measurements)
** Current wind speed in m/s (hover to see current wind gust speed)